createdAt,value
2023-01-19T00:00:55.817Z,14.13
2023-01-19T00:03:22.805Z,16.85
2023-01-19T00:05:49.665Z,15.20
2023-01-19T00:08:17.268Z,16.08
2023-01-19T00:10:45.961Z,18.65
2023-01-19T00:13:13.142Z,13.60
2023-01-19T00:15:39.959Z,14.52
2023-01-19T00:18:07.634Z,16.52
2023-01-19T00:20:35.954Z,13.18
2023-01-19T00:23:04.788Z,19.60
2023-01-19T00:25:31.730Z,12.55
2023-01-19T00:28:00.667Z,18.38
2023-01-19T00:30:28.464Z,13.70
2023-01-19T00:32:55.504Z,14.25
2023-01-19T00:35:22.351Z,13.32
2023-01-19T00:37:49.341Z,14.05
2023-01-19T00:40:16.509Z,17.67
2023-01-19T00:42:48.303Z,14.90
2023-01-19T00:45:18.724Z,12.15
2023-01-19T00:47:46.766Z,15.07
2023-01-19T00:50:16.878Z,15.15
2023-01-19T00:52:44.948Z,15.20
2023-01-19T00:55:14.485Z,16.52
2023-01-19T00:57:41.945Z,12.98
2023-01-19T01:00:15.448Z,18.17
2023-01-19T01:02:43.867Z,15.73
2023-01-19T01:05:11.677Z,19.35
2023-01-19T01:07:42.869Z,14.40
2023-01-19T01:10:17.791Z,18.27
2023-01-19T01:12:55.511Z,12.52
2023-01-19T01:15:52.485Z,16.17
2023-01-19T01:18:20.191Z,15.80
2023-01-19T01:20:46.965Z,13.95
2023-01-19T01:23:13.959Z,15.18
2023-01-19T01:25:41.198Z,17.25
2023-01-19T01:28:08.893Z,19.58
2023-01-19T01:30:40.064Z,17.95
2023-01-19T01:33:08.704Z,15.23
2023-01-19T01:35:35.470Z,14.43
2023-01-19T01:38:02.269Z,17.23
2023-01-19T01:40:29.353Z,23.15
2023-01-19T01:42:56.108Z,17.55
2023-01-19T01:45:37.492Z,16.55
2023-01-19T01:48:14.122Z,17.67
2023-01-19T01:51:05.669Z,18.33
2023-01-19T01:53:34.316Z,16.85
2023-01-19T01:56:03.505Z,15.70
2023-01-19T01:58:32.562Z,20.88
2023-01-19T02:01:18.098Z,17.75
2023-01-19T02:03:45.081Z,16.98
2023-01-19T02:06:12.491Z,19.08
2023-01-19T02:09:11.367Z,17.90
2023-01-19T02:11:57.318Z,14.95
2023-01-19T02:14:24.247Z,16.75
2023-01-19T02:16:51.108Z,16.80
2023-01-19T02:19:23.684Z,17.27
2023-01-19T02:22:18.359Z,18.38
2023-01-19T02:24:45.674Z,13.57
2023-01-19T02:27:12.569Z,14.40
2023-01-19T02:29:39.786Z,15.10
2023-01-19T02:32:07.400Z,17.17
2023-01-19T02:34:34.998Z,14.85
2023-01-19T02:37:07.507Z,15.63
2023-01-19T02:39:52.713Z,17.52
2023-01-19T02:42:33.319Z,12.20
2023-01-19T02:45:00.319Z,16.75
2023-01-19T02:47:27.080Z,16.17
2023-01-19T02:49:58.432Z,19.77
2023-01-19T02:52:26.009Z,15.98
2023-01-19T02:55:05.112Z,11.07
2023-01-19T02:57:44.542Z,17.02
2023-01-19T03:00:20.482Z,15.50
2023-01-19T03:03:06.030Z,16.38
2023-01-19T03:05:57.787Z,15.05
2023-01-19T03:08:44.385Z,15.98
2023-01-19T03:11:13.095Z,15.00
2023-01-19T03:13:51.717Z,15.60
2023-01-19T03:16:23.942Z,19.35
2023-01-19T03:18:57.071Z,18.73
2023-01-19T03:21:27.103Z,20.83
2023-01-19T03:23:57.051Z,14.70
2023-01-19T03:26:29.204Z,18.17
2023-01-19T03:28:56.974Z,16.67
2023-01-19T03:31:26.649Z,19.60
2023-01-19T03:33:59.925Z,16.40
2023-01-19T03:36:36.286Z,15.65
2023-01-19T03:39:05.223Z,15.07
2023-01-19T03:41:33.135Z,21.52
2023-01-19T03:44:00.321Z,16.10
2023-01-19T03:46:27.475Z,22.17
2023-01-19T03:48:55.487Z,15.82
2023-01-19T03:51:22.840Z,18.42
2023-01-19T03:53:50.183Z,17.95
2023-01-19T03:56:23.252Z,18.00
2023-01-19T03:58:51.134Z,14.93
2023-01-19T04:01:20.902Z,18.90
2023-01-19T04:03:47.808Z,17.27
2023-01-19T04:06:14.964Z,18.25
2023-01-19T04:08:41.772Z,17.88
2023-01-19T04:11:08.704Z,16.67
2023-01-19T04:13:35.949Z,18.48
2023-01-19T04:16:04.222Z,17.63
2023-01-19T04:18:33.810Z,19.30
2023-01-19T04:21:06.743Z,20.13
2023-01-19T04:23:34.167Z,18.75
2023-01-19T04:26:06.870Z,18.10
2023-01-19T04:28:35.278Z,18.05
2023-01-19T04:31:02.069Z,16.83
2023-01-19T04:33:29.023Z,18.30
2023-01-19T04:35:56.168Z,19.65
2023-01-19T04:38:26.086Z,18.50
2023-01-19T04:40:53.788Z,22.00
2023-01-19T04:43:22.145Z,15.18
2023-01-19T04:45:49.463Z,18.17
2023-01-19T04:48:16.693Z,19.15
2023-01-19T04:50:43.474Z,20.67
2023-01-19T04:53:10.349Z,16.30
2023-01-19T04:55:38.256Z,22.83
2023-01-19T04:58:05.507Z,17.35
2023-01-19T05:00:32.545Z,18.45
2023-01-19T05:03:00.087Z,19.58
2023-01-19T05:05:27.669Z,19.30
2023-01-19T05:07:54.787Z,26.65
2023-01-19T05:10:25.215Z,16.15
2023-01-19T05:12:52.710Z,20.10
2023-01-19T05:15:19.551Z,24.95
2023-01-19T05:17:46.432Z,19.65
2023-01-19T05:20:16.273Z,20.08
2023-01-19T05:22:48.459Z,24.52
2023-01-19T05:25:15.496Z,21.05
2023-01-19T05:27:42.545Z,23.45
2023-01-19T05:30:11.855Z,19.73
2023-01-19T05:32:38.547Z,18.27
2023-01-19T05:35:06.034Z,25.58
2023-01-19T05:37:33.083Z,21.27
2023-01-19T05:40:00.020Z,20.17
2023-01-19T05:42:26.795Z,18.45
2023-01-19T05:44:53.725Z,21.40
2023-01-19T05:47:20.721Z,22.42
2023-01-19T05:49:47.619Z,24.63
2023-01-19T05:52:15.137Z,26.25
2023-01-19T05:54:42.199Z,20.10
2023-01-19T05:57:09.587Z,27.92
2023-01-19T05:59:36.326Z,22.65
2023-01-19T06:02:03.524Z,28.25
2023-01-19T06:04:30.382Z,23.83
2023-01-19T06:06:57.316Z,24.08
2023-01-19T06:09:24.178Z,23.63
2023-01-19T06:11:51.103Z,30.40
2023-01-19T06:14:17.808Z,26.42
2023-01-19T06:16:44.738Z,25.08
2023-01-19T06:19:11.760Z,20.90
2023-01-19T06:21:38.744Z,25.05
2023-01-19T06:24:06.044Z,26.48
2023-01-19T06:26:32.763Z,30.20
2023-01-19T06:28:59.589Z,23.30
2023-01-19T06:31:26.645Z,25.27
2023-01-19T06:33:53.630Z,22.92
2023-01-19T06:36:20.388Z,24.70
2023-01-19T06:38:47.147Z,28.08
2023-01-19T06:41:14.189Z,24.65
2023-01-19T06:43:41.890Z,25.23
2023-01-19T06:46:09.115Z,27.90
2023-01-19T06:48:36.131Z,28.58
2023-01-19T06:51:02.905Z,26.23
2023-01-19T06:53:30.414Z,21.77
2023-01-19T06:56:04.524Z,22.50
2023-01-19T06:58:32.074Z,21.65
2023-01-19T07:01:06.368Z,19.85
2023-01-19T07:03:34.210Z,27.40
2023-01-19T07:06:06.579Z,25.33
2023-01-19T07:08:35.312Z,23.17
2023-01-19T07:11:23.118Z,23.23
2023-01-19T07:13:55.829Z,24.45
2023-01-19T07:16:23.080Z,21.60
2023-01-19T07:18:50.293Z,22.08
2023-01-19T07:21:17.576Z,26.40
2023-01-19T07:23:44.336Z,23.02
2023-01-19T07:26:11.854Z,25.20
2023-01-19T07:28:38.780Z,20.25
2023-01-19T07:31:06.335Z,28.10
2023-01-19T07:33:33.469Z,28.13
2023-01-19T07:36:00.239Z,26.75
2023-01-19T07:38:27.028Z,25.13
2023-01-19T07:41:02.212Z,27.42
2023-01-19T07:43:29.678Z,24.58
2023-01-19T07:45:57.925Z,22.38
2023-01-19T07:48:25.354Z,26.27
2023-01-19T07:50:52.053Z,27.35
2023-01-19T07:53:19.191Z,24.25
2023-01-19T07:55:53.996Z,27.27
2023-01-19T07:58:23.091Z,31.55
2023-01-19T08:00:50.921Z,27.40
2023-01-19T08:03:18.769Z,27.17
2023-01-19T08:05:45.697Z,23.40
2023-01-19T08:08:12.789Z,20.48
2023-01-19T08:10:39.710Z,28.63
2023-01-19T08:13:06.733Z,26.88
2023-01-19T08:15:33.526Z,25.83
2023-01-19T08:18:02.405Z,25.13
2023-01-19T08:20:30.065Z,29.27
2023-01-19T08:23:00.577Z,25.30
2023-01-19T08:25:36.311Z,25.20
2023-01-19T08:28:05.011Z,25.88
2023-01-19T08:30:32.863Z,21.45
2023-01-19T08:33:08.346Z,26.67
2023-01-19T08:35:49.135Z,27.48
2023-01-19T08:38:17.484Z,22.25
2023-01-19T08:40:44.943Z,22.02
2023-01-19T08:43:14.219Z,23.42
2023-01-19T08:45:49.972Z,26.70
2023-01-19T08:48:20.388Z,25.33
2023-01-19T08:50:47.849Z,30.42
2023-01-19T08:53:15.141Z,23.98
2023-01-19T08:55:42.510Z,19.70
2023-01-19T08:58:09.939Z,28.88
2023-01-19T09:00:38.965Z,24.83
2023-01-19T09:03:07.964Z,25.08
2023-01-19T09:05:37.462Z,27.40
2023-01-19T09:08:06.447Z,29.40
2023-01-19T09:10:36.109Z,28.83
2023-01-19T09:13:05.237Z,20.02
2023-01-19T09:15:38.016Z,21.38
2023-01-19T09:18:07.338Z,19.35
2023-01-19T09:20:36.313Z,19.60
2023-01-19T09:23:03.243Z,25.02
2023-01-19T09:25:38.601Z,20.30
2023-01-19T09:28:09.959Z,23.45
2023-01-19T09:30:40.181Z,26.90
2023-01-19T09:33:11.761Z,26.50
2023-01-19T09:35:39.653Z,24.40
2023-01-19T09:38:09.129Z,25.88
2023-01-19T09:40:50.420Z,23.17
2023-01-19T09:43:40.686Z,28.73
2023-01-19T09:46:22.745Z,24.73
2023-01-19T09:48:55.225Z,25.70
2023-01-19T09:51:26.483Z,25.83
2023-01-19T09:54:07.387Z,26.88
2023-01-19T09:56:34.300Z,24.80
2023-01-19T09:59:01.584Z,22.60
2023-01-19T10:01:40.132Z,21.90
2023-01-19T10:04:18.980Z,25.08
2023-01-19T10:06:48.540Z,24.02
2023-01-19T10:09:42.034Z,21.42
2023-01-19T10:12:19.061Z,28.80
2023-01-19T10:15:08.899Z,27.48
2023-01-19T10:18:06.742Z,23.75
2023-01-19T10:20:38.187Z,22.75
2023-01-19T10:23:19.372Z,29.27
2023-01-19T10:25:46.813Z,39.83
2023-01-19T10:28:25.440Z,26.08
2023-01-19T10:30:54.761Z,24.00
2023-01-19T10:33:21.854Z,23.50
2023-01-19T10:35:48.995Z,22.15
2023-01-19T10:38:20.011Z,21.52
2023-01-19T10:40:54.943Z,19.30
2023-01-19T10:43:34.019Z,24.92
2023-01-19T10:46:49.520Z,20.63
2023-01-19T10:49:39.205Z,28.83
2023-01-19T10:52:08.467Z,20.48
2023-01-19T10:54:45.571Z,17.27
2023-01-19T10:57:22.706Z,22.35
2023-01-19T11:00:01.687Z,18.52
2023-01-19T11:02:30.700Z,23.50
2023-01-19T11:05:01.648Z,18.13
2023-01-19T11:07:33.794Z,16.98
2023-01-19T11:10:28.756Z,18.92
2023-01-19T11:12:59.281Z,18.50
2023-01-19T11:15:36.639Z,24.05
2023-01-19T11:18:08.487Z,23.98
2023-01-19T11:20:49.440Z,19.77
2023-01-19T11:23:24.980Z,21.70
2023-01-19T11:25:52.675Z,24.70
2023-01-19T11:28:28.006Z,18.80
2023-01-19T11:31:16.683Z,24.77
2023-01-19T11:33:51.166Z,24.80
2023-01-19T11:36:21.188Z,19.60
2023-01-19T11:38:53.182Z,19.88
2023-01-19T11:41:35.631Z,29.23
2023-01-19T11:44:20.516Z,27.10
2023-01-19T11:46:51.328Z,20.33
2023-01-19T11:49:28.013Z,22.85
2023-01-19T11:52:12.416Z,23.98
2023-01-19T11:55:07.545Z,19.50
2023-01-19T11:57:34.365Z,20.88
2023-01-19T12:00:05.415Z,25.15
2023-01-19T12:02:43.114Z,22.25
2023-01-19T12:05:15.201Z,19.60
2023-01-19T12:07:43.147Z,23.02
2023-01-19T12:10:41.652Z,23.73
2023-01-19T12:13:20.186Z,23.20
2023-01-19T12:15:48.225Z,25.92
2023-01-19T12:18:45.898Z,25.95
2023-01-19T12:21:13.007Z,22.87
2023-01-19T12:23:42.880Z,22.77
2023-01-19T12:26:31.402Z,22.00
2023-01-19T12:29:14.344Z,29.10
2023-01-19T12:31:43.090Z,34.38
2023-01-19T12:34:26.031Z,29.85
2023-01-19T12:36:55.654Z,28.13
2023-01-19T12:39:25.763Z,25.48
2023-01-19T12:42:17.028Z,31.05
2023-01-19T12:44:45.843Z,27.75
2023-01-19T12:47:18.330Z,30.50
2023-01-19T12:49:46.668Z,26.53
2023-01-19T12:53:02.909Z,26.85
2023-01-19T12:55:31.193Z,25.92
2023-01-19T12:57:58.127Z,24.67
2023-01-19T13:00:24.969Z,30.37
2023-01-19T13:03:19.676Z,24.13
2023-01-19T13:05:56.996Z,19.87
2023-01-19T13:08:26.092Z,21.00
2023-01-19T13:11:12.582Z,25.43
2023-01-19T13:13:48.119Z,20.90
2023-01-19T13:16:30.035Z,25.50
2023-01-19T13:19:08.849Z,23.53
2023-01-19T13:21:51.429Z,21.90
2023-01-19T13:24:22.586Z,23.63
2023-01-19T13:26:49.537Z,22.47
2023-01-19T13:29:31.307Z,25.20
2023-01-19T13:32:03.599Z,23.80
2023-01-19T13:34:35.642Z,21.37
2023-01-19T13:37:03.047Z,19.87
2023-01-19T13:39:35.209Z,18.93
2023-01-19T13:42:09.803Z,18.00
2023-01-19T13:44:41.676Z,16.53
2023-01-19T13:47:14.555Z,17.97
2023-01-19T13:49:46.261Z,15.77
2023-01-19T13:52:25.095Z,18.57
2023-01-19T13:55:02.842Z,15.00
2023-01-19T13:57:40.595Z,13.70
2023-01-19T14:00:16.759Z,16.70
2023-01-19T14:02:54.847Z,9.53
2023-01-19T14:05:26.595Z,18.97
2023-01-19T14:08:15.423Z,19.13
2023-01-19T14:10:55.187Z,16.30
2023-01-19T14:13:32.621Z,15.57
2023-01-19T14:16:04.980Z,17.43
2023-01-19T14:18:36.052Z,16.23
2023-01-19T14:21:09.280Z,17.37
2023-01-19T14:23:47.591Z,18.07
2023-01-19T14:26:41.923Z,16.13
2023-01-19T14:29:28.975Z,16.73
2023-01-19T14:32:10.245Z,17.37
2023-01-19T14:34:38.832Z,16.60
2023-01-19T14:37:29.060Z,22.40
2023-01-19T14:39:59.651Z,18.70
2023-01-19T14:42:36.433Z,18.97
2023-01-19T14:45:08.966Z,20.73
2023-01-19T14:47:38.976Z,17.57
2023-01-19T14:50:23.025Z,19.70
2023-01-19T14:52:56.081Z,24.27
2023-01-19T14:55:26.899Z,24.33
2023-01-19T14:57:55.017Z,22.60
2023-01-19T15:00:22.279Z,18.00
2023-01-19T15:02:50.507Z,23.10
2023-01-19T15:05:17.384Z,22.67
2023-01-19T15:07:46.049Z,18.20
2023-01-19T15:10:17.888Z,25.43
2023-01-19T15:12:44.961Z,19.13
2023-01-19T15:15:22.416Z,24.27
2023-01-19T15:17:50.024Z,16.80
2023-01-19T15:20:19.446Z,21.33
2023-01-19T15:22:46.657Z,15.33
2023-01-19T15:25:18.307Z,16.17
2023-01-19T15:27:46.105Z,16.57
2023-01-19T15:30:21.719Z,18.63
2023-01-19T15:32:48.937Z,18.93
2023-01-19T15:35:20.900Z,18.13
2023-01-19T15:37:49.193Z,16.43
2023-01-19T15:40:17.911Z,19.53
2023-01-19T15:42:45.344Z,17.13
2023-01-19T15:45:31.070Z,17.93
2023-01-19T15:47:58.320Z,16.17
2023-01-19T15:50:25.998Z,17.20
2023-01-19T15:52:53.176Z,21.03
2023-01-19T15:55:20.185Z,19.33
2023-01-19T15:57:48.248Z,18.40
2023-01-19T16:00:15.792Z,24.43
2023-01-19T16:02:43.013Z,18.20
2023-01-19T16:05:10.407Z,21.03
2023-01-19T16:07:37.650Z,24.23
2023-01-19T16:10:09.568Z,21.03
2023-01-19T16:12:37.069Z,29.37
2023-01-19T16:15:04.388Z,23.90
2023-01-19T16:17:31.540Z,21.52
2023-01-19T16:19:58.756Z,23.37
2023-01-19T16:22:25.753Z,23.70
2023-01-19T16:24:53.343Z,22.57
2023-01-19T16:27:20.466Z,19.33
2023-01-19T16:29:48.220Z,20.27
2023-01-19T16:32:17.100Z,23.53
2023-01-19T16:34:43.984Z,25.70
2023-01-19T16:37:13.912Z,23.70
2023-01-19T16:39:40.858Z,22.15
2023-01-19T16:42:07.784Z,23.77
2023-01-19T16:44:34.611Z,20.15
2023-01-19T16:47:01.454Z,26.05
2023-01-19T16:49:28.659Z,20.73
2023-01-19T16:51:58.651Z,22.90
2023-01-19T16:54:26.650Z,23.67
2023-01-19T16:56:54.801Z,21.65
2023-01-19T16:59:22.639Z,24.95
2023-01-19T17:01:51.089Z,20.88
2023-01-19T17:04:19.836Z,27.13
2023-01-19T17:06:46.935Z,25.50
2023-01-19T17:09:14.178Z,25.60
2023-01-19T17:11:41.645Z,25.92
2023-01-19T17:14:17.318Z,27.67
2023-01-19T17:16:44.577Z,25.60
2023-01-19T17:19:15.216Z,26.13
2023-01-19T17:21:46.577Z,27.92
2023-01-19T17:24:13.403Z,28.87
2023-01-19T17:26:40.870Z,21.53
2023-01-19T17:29:09.220Z,29.75
2023-01-19T17:31:36.912Z,23.10
2023-01-19T17:34:04.293Z,24.30
2023-01-19T17:36:32.197Z,25.73
2023-01-19T17:39:00.915Z,29.97
2023-01-19T17:41:34.330Z,25.23
2023-01-19T17:44:02.188Z,24.20
2023-01-19T17:46:29.928Z,22.20
2023-01-19T17:48:59.045Z,26.57
2023-01-19T17:51:39.292Z,24.87
2023-01-19T17:56:57.719Z,27.43
2023-01-19T17:59:24.776Z,22.20
2023-01-19T18:01:51.977Z,28.23
2023-01-19T18:04:19.349Z,26.90
2023-01-19T18:06:47.302Z,27.42
2023-01-19T18:09:14.444Z,25.65
2023-01-19T18:11:42.957Z,24.55
2023-01-19T18:14:09.981Z,23.60
2023-01-19T18:16:37.599Z,27.80
2023-01-19T18:19:06.758Z,25.33
2023-01-19T18:21:33.870Z,30.73
2023-01-19T18:24:02.962Z,31.75
2023-01-19T18:26:31.132Z,27.42
2023-01-19T18:28:58.466Z,24.48
2023-01-19T18:31:26.553Z,24.42
2023-01-19T18:33:54.040Z,21.92
2023-01-19T18:36:21.004Z,25.95
2023-01-19T18:38:47.904Z,28.13
2023-01-19T18:41:16.924Z,29.13
2023-01-19T18:43:44.294Z,24.67
2023-01-19T18:46:11.634Z,28.10
2023-01-19T18:48:39.397Z,27.08
2023-01-19T18:51:11.920Z,27.52
2023-01-19T18:53:39.085Z,31.73
2023-01-19T18:56:06.623Z,27.65
2023-01-19T18:58:36.398Z,28.67
2023-01-19T19:01:04.964Z,35.30
2023-01-19T19:03:32.045Z,26.13
2023-01-19T19:06:03.519Z,23.05
2023-01-19T19:08:30.687Z,24.02
2023-01-19T19:10:57.569Z,28.15
2023-01-19T19:13:24.445Z,28.77
2023-01-19T19:15:52.763Z,25.65
2023-01-19T19:18:19.915Z,23.85
2023-01-19T19:20:46.849Z,23.70
2023-01-19T19:23:13.738Z,25.35
2023-01-19T19:25:40.570Z,27.63
2023-01-19T19:28:10.595Z,27.75
2023-01-19T19:30:39.031Z,26.40
2023-01-19T19:33:06.117Z,28.65
2023-01-19T19:35:32.989Z,24.40
2023-01-19T19:37:59.974Z,29.38
2023-01-19T19:40:29.386Z,28.13
2023-01-19T19:42:58.707Z,26.92
2023-01-19T19:45:25.798Z,27.52
2023-01-19T19:47:52.794Z,33.05
2023-01-19T19:50:19.981Z,29.25
2023-01-19T19:52:47.158Z,28.02
2023-01-19T19:55:14.274Z,32.28
2023-01-19T19:57:41.169Z,24.17
2023-01-19T20:00:09.131Z,29.15
2023-01-19T20:02:38.808Z,27.83
2023-01-19T20:05:06.060Z,26.05
2023-01-19T20:07:33.029Z,26.73
2023-01-19T20:10:00.317Z,28.55
2023-01-19T20:12:28.078Z,30.85
2023-01-19T20:14:55.799Z,28.80
2023-01-19T20:17:23.345Z,29.27
2023-01-19T20:19:52.864Z,30.98
2023-01-19T20:22:19.766Z,30.33
2023-01-19T20:24:46.927Z,33.83
2023-01-19T20:27:13.821Z,37.00
2023-01-19T20:29:40.810Z,42.42
2023-01-19T20:32:08.189Z,34.25
2023-01-19T20:34:35.848Z,33.63
2023-01-19T20:37:04.045Z,31.90
2023-01-19T20:39:33.499Z,31.48
2023-01-19T20:42:01.193Z,31.85
2023-01-19T20:44:28.388Z,34.83
2023-01-19T20:46:55.781Z,28.25
2023-01-19T20:49:22.971Z,34.92
2023-01-19T20:51:51.270Z,31.50
2023-01-19T20:54:20.009Z,34.65
2023-01-19T20:56:46.816Z,28.27
2023-01-19T20:59:13.907Z,29.67
2023-01-19T21:01:41.380Z,26.25
2023-01-19T21:04:08.472Z,28.52
2023-01-19T21:06:36.007Z,31.15
2023-01-19T21:09:03.293Z,37.53
2023-01-19T21:11:30.696Z,33.35
2023-01-19T21:13:57.815Z,30.17
2023-01-19T21:16:31.475Z,34.45
2023-01-19T21:18:58.485Z,27.27
2023-01-19T21:21:30.921Z,30.02
2023-01-19T21:24:01.754Z,23.85
2023-01-19T21:26:33.511Z,31.90
2023-01-19T21:29:02.171Z,26.48
2023-01-19T21:31:29.143Z,30.77
2023-01-19T21:33:57.166Z,26.95
2023-01-19T21:36:24.707Z,27.50
2023-01-19T21:38:52.564Z,27.05
2023-01-19T21:41:20.343Z,26.55
2023-01-19T21:43:47.469Z,24.25
2023-01-19T21:46:18.231Z,32.92
2023-01-19T21:48:45.997Z,26.73
2023-01-19T21:51:13.868Z,25.17
2023-01-19T21:53:41.003Z,28.33
2023-01-19T21:56:09.435Z,29.58
2023-01-19T21:58:36.293Z,29.02
2023-01-19T22:01:06.134Z,26.95
2023-01-19T22:03:33.243Z,26.38
2023-01-19T22:06:05.223Z,27.67
2023-01-19T22:08:33.149Z,25.70
2023-01-19T22:18:40.865Z,28.42
2023-01-19T22:21:14.243Z,26.48
2023-01-19T22:23:41.619Z,32.25
2023-01-19T22:26:09.303Z,29.77
2023-01-19T22:28:36.587Z,31.83
2023-01-19T22:31:11.995Z,28.33
2023-01-19T22:33:38.944Z,28.42
2023-01-19T22:36:16.275Z,30.52
2023-01-19T22:38:43.841Z,32.10
2023-01-19T22:41:37.891Z,31.80
2023-01-19T22:44:09.995Z,33.40
2023-01-19T22:46:37.588Z,26.80
2023-01-19T22:49:07.505Z,30.85
2023-01-19T22:51:35.022Z,33.13
2023-01-19T22:54:01.890Z,32.55
2023-01-19T22:56:31.223Z,30.10
2023-01-19T22:58:59.104Z,34.88
2023-01-19T23:01:33.248Z,34.00
2023-01-19T23:04:01.416Z,37.70
2023-01-19T23:06:30.273Z,31.30
2023-01-19T23:08:59.812Z,36.35
2023-01-19T23:11:29.616Z,31.88
2023-01-19T23:13:56.571Z,32.67
2023-01-19T23:16:23.469Z,33.38
2023-01-19T23:18:54.200Z,35.53
2023-01-19T23:21:22.938Z,29.80
2023-01-19T23:23:53.619Z,30.52
2023-01-19T23:26:20.854Z,35.03
2023-01-19T23:28:48.093Z,30.30
2023-01-19T23:31:22.304Z,33.05
2023-01-19T23:33:54.663Z,31.15
2023-01-19T23:36:23.004Z,33.13
2023-01-19T23:38:52.402Z,29.58
2023-01-19T23:41:20.290Z,31.25
2023-01-19T23:43:47.194Z,27.63
2023-01-19T23:46:14.813Z,31.25
2023-01-19T23:48:41.480Z,33.92
2023-01-19T23:51:15.832Z,36.38
2023-01-19T23:53:43.180Z,31.52
2023-01-19T23:56:15.854Z,29.15
2023-01-19T23:58:42.852Z,30.73
